Time;durP1;ratioP1;P1;durP2;ratioP2;P2;SDS_P1;SDS_P2;PMS_P1;PMS_P2;Temp;Humidity;BMP_temperature;BMP_pressure;BME280_temperature;BME280_humidity;BME280_pressure;Samples;Min_cycle;Max_cycle;Signal;HPM_P1;HPM_P2
2023/10/27 00:00:49;;;;;;;7.65;4.78;;;10.50;99.90;;;;;;5090078;28;20414;-70
2023/10/27 00:03:17;;;;;;;7.35;4.65;;;10.50;99.90;;;;;;5089660;28;20432;-71
2023/10/27 00:05:44;;;;;;;7.50;5.03;;;10.50;99.90;;;;;;5088456;28;20429;-70
2023/10/27 00:08:11;;;;;;;9.37;5.07;;;10.40;99.90;;;;;;5089990;28;20776;-69
2023/10/27 00:10:38;;;;;;;8.25;4.95;;;10.40;99.90;;;;;;5089004;28;20426;-70
2023/10/27 00:13:04;;;;;;;10.25;5.15;;;10.40;99.90;;;;;;5088094;28;20421;-69
2023/10/27 00:15:31;;;;;;;7.90;5.15;;;10.40;99.90;;;;;;5090238;28;20417;-71
2023/10/27 00:17:58;;;;;;;8.35;5.35;;;10.40;99.90;;;;;;5081560;28;20411;-70
2023/10/27 00:20:26;;;;;;;10.40;5.60;;;10.30;99.90;;;;;;5089290;28;20433;-70
2023/10/27 00:22:53;;;;;;;8.13;5.20;;;10.30;99.90;;;;;;5088618;28;20903;-70
2023/10/27 00:25:20;;;;;;;8.05;5.07;;;10.30;99.90;;;;;;5089671;28;20951;-70
2023/10/27 00:27:47;;;;;;;7.05;4.30;;;10.30;99.90;;;;;;5087251;28;20432;-70
2023/10/27 00:30:13;;;;;;;6.20;4.00;;;10.20;99.90;;;;;;5082817;28;20426;-71
2023/10/27 00:32:40;;;;;;;9.00;4.32;;;10.30;99.90;;;;;;5085355;28;20414;-70
2023/10/27 00:35:07;;;;;;;8.23;4.20;;;10.20;99.90;;;;;;5085705;28;20445;-70
2023/10/27 00:37:36;;;;;;;10.48;4.25;;;10.20;99.90;;;;;;5089474;28;20892;-70
2023/10/27 00:40:03;;;;;;;9.77;4.20;;;10.30;99.90;;;;;;5085918;28;20417;-69
2023/10/27 00:42:30;;;;;;;10.07;4.20;;;10.20;99.90;;;;;;5080096;28;20435;-70
2023/10/27 00:44:57;;;;;;;10.93;4.47;;;10.20;99.90;;;;;;5084238;28;20510;-69
2023/10/27 00:47:25;;;;;;;10.35;4.10;;;10.30;99.90;;;;;;5081024;28;20424;-70
2023/10/27 00:49:52;;;;;;;13.10;3.90;;;10.30;99.90;;;;;;5082472;28;20436;-70
2023/10/27 00:52:20;;;;;;;7.70;4.10;;;10.20;99.90;;;;;;5103010;22;20433;-72
2023/10/27 00:54:50;;;;;;;12.57;4.80;;;10.20;99.90;;;;;;5083910;28;20441;-72
2023/10/27 00:57:18;;;;;;;8.52;3.97;;;10.20;99.90;;;;;;5085369;28;20409;-72
2023/10/27 00:59:45;;;;;;;6.60;4.10;;;10.20;99.90;;;;;;5090453;28;20412;-72
2023/10/27 01:02:14;;;;;;;10.52;4.43;;;10.20;99.90;;;;;;5071621;28;20775;-72
2023/10/27 01:04:41;;;;;;;8.68;5.15;;;10.30;99.90;;;;;;5067773;28;20459;-72
2023/10/27 01:07:08;;;;;;;9.35;4.15;;;10.30;99.90;;;;;;5067140;28;20411;-72
2023/10/27 01:09:35;;;;;;;8.90;5.20;;;10.30;99.90;;;;;;5063680;28;20434;-71
2023/10/27 01:12:04;;;;;;;11.18;5.03;;;10.30;99.90;;;;;;5064936;28;20427;-71
2023/10/27 01:14:31;;;;;;;9.02;4.50;;;10.30;99.90;;;;;;5064363;28;20427;-71
2023/10/27 01:16:57;;;;;;;10.32;4.38;;;10.30;99.90;;;;;;5064265;28;20491;-75
2023/10/27 01:19:24;;;;;;;8.57;4.10;;;10.30;99.90;;;;;;5064747;28;20952;-72
2023/10/27 01:21:51;;;;;;;11.13;4.20;;;10.30;99.90;;;;;;5066916;28;20434;-72
2023/10/27 01:24:19;;;;;;;7.90;3.90;;;10.30;99.90;;;;;;5067484;28;20419;-72
2023/10/27 01:26:46;;;;;;;7.00;3.60;;;10.30;99.90;;;;;;5064641;28;20964;-73
2023/10/27 01:29:13;;;;;;;10.30;4.88;;;10.40;99.90;;;;;;5064018;28;20436;-72
2023/10/27 01:31:39;;;;;;;9.30;4.80;;;10.40;99.90;;;;;;5062963;28;20419;-72
2023/10/27 01:34:06;;;;;;;7.10;3.90;;;10.40;99.90;;;;;;5062089;28;20909;-72
2023/10/27 01:36:33;;;;;;;10.50;5.05;;;10.40;99.90;;;;;;5070086;28;20545;-70
2023/10/27 01:39:00;;;;;;;7.68;4.10;;;10.40;99.90;;;;;;5066737;28;20408;-72
2023/10/27 01:41:28;;;;;;;9.93;4.60;;;10.40;99.90;;;;;;5063419;28;20622;-71
2023/10/27 01:43:54;;;;;;;9.10;4.20;;;10.40;99.90;;;;;;5062527;28;20431;-71
2023/10/27 01:46:21;;;;;;;9.40;4.30;;;10.40;99.90;;;;;;5066281;28;20431;-71
2023/10/27 01:48:48;;;;;;;11.73;4.80;;;10.40;99.90;;;;;;5068290;28;20431;-71
2023/10/27 01:51:15;;;;;;;8.95;4.32;;;10.40;99.90;;;;;;5063440;28;20412;-71
2023/10/27 01:53:42;;;;;;;9.05;4.40;;;10.40;99.90;;;;;;5062606;28;20964;-70
2023/10/27 01:56:09;;;;;;;10.35;4.30;;;10.40;99.90;;;;;;5064056;28;20421;-70
2023/10/27 01:58:40;;;;;;;9.57;4.60;;;10.50;99.90;;;;;;5067887;28;20424;-71
2023/10/27 02:01:07;;;;;;;7.97;4.10;;;10.40;99.90;;;;;;5072065;28;20423;-71
2023/10/27 02:03:34;;;;;;;9.02;4.43;;;10.40;99.90;;;;;;5068710;28;20426;-71
2023/10/27 02:06:00;;;;;;;7.70;4.78;;;10.50;99.90;;;;;;5062797;28;20419;-70
2023/10/27 02:08:27;;;;;;;8.40;4.78;;;10.40;99.90;;;;;;5063853;28;20519;-71
2023/10/27 02:10:54;;;;;;;7.88;4.97;;;10.40;99.90;;;;;;5063426;28;20550;-71
2023/10/27 02:13:21;;;;;;;8.63;4.70;;;10.40;99.90;;;;;;5064240;28;20889;-70
2023/10/27 02:15:49;;;;;;;8.52;4.80;;;10.40;99.90;;;;;;5064271;28;20415;-70
2023/10/27 02:18:15;;;;;;;7.57;5.17;;;10.40;99.90;;;;;;5066515;28;20408;-71
2023/10/27 02:20:42;;;;;;;9.90;4.88;;;10.40;99.90;;;;;;5064416;28;20408;-73
2023/10/27 02:23:09;;;;;;;12.00;5.20;;;10.30;99.90;;;;;;5063848;28;20902;-70
2023/10/27 02:25:36;;;;;;;6.93;4.90;;;10.30;99.90;;;;;;5068475;28;20418;-71
2023/10/27 02:28:02;;;;;;;7.75;4.72;;;10.40;99.90;;;;;;5064193;28;20870;-71
2023/10/27 02:30:29;;;;;;;9.77;5.60;;;10.30;99.90;;;;;;5070042;28;20518;-72
2023/10/27 02:32:57;;;;;;;7.75;5.10;;;10.30;99.90;;;;;;5062482;28;20427;-71
2023/10/27 02:35:25;;;;;;;8.67;4.70;;;10.30;99.90;;;;;;5074068;28;20542;-71
2023/10/27 02:37:52;;;;;;;5.50;4.70;;;10.30;99.90;;;;;;5068887;28;20423;-71
2023/10/27 02:40:19;;;;;;;7.10;4.50;;;10.30;99.90;;;;;;5071011;28;20414;-71
2023/10/27 02:42:46;;;;;;;8.18;5.50;;;10.30;99.90;;;;;;5073099;28;20412;-71
2023/10/27 02:45:12;;;;;;;9.98;5.40;;;10.30;99.90;;;;;;5071893;28;20843;-71
2023/10/27 02:47:39;;;;;;;5.47;4.60;;;10.30;99.90;;;;;;5068470;28;20502;-71
2023/10/27 02:50:08;;;;;;;9.77;4.90;;;10.30;99.90;;;;;;5071175;28;20531;-71
2023/10/27 02:52:35;;;;;;;6.93;4.80;;;10.30;99.90;;;;;;5067424;28;20424;-71
2023/10/27 02:55:01;;;;;;;9.07;4.50;;;10.30;99.90;;;;;;5067253;28;20415;-71
2023/10/27 02:57:28;;;;;;;6.57;5.18;;;10.30;99.90;;;;;;5067990;28;20423;-71
2023/10/27 02:59:56;;;;;;;8.15;4.85;;;10.20;99.90;;;;;;5068838;28;20415;-71
2023/10/27 03:02:23;;;;;;;7.57;5.00;;;10.30;99.90;;;;;;5068134;28;20921;-72
2023/10/27 03:04:51;;;;;;;6.82;4.70;;;10.20;99.90;;;;;;5068021;28;20931;-71
2023/10/27 03:07:19;;;;;;;7.63;5.15;;;10.30;99.90;;;;;;5067829;28;20431;-70
2023/10/27 03:09:46;;;;;;;6.40;4.70;;;10.20;99.90;;;;;;5067998;28;20487;-71
2023/10/27 03:12:14;;;;;;;6.95;4.68;;;10.30;99.90;;;;;;5067083;28;20416;-70
2023/10/27 03:14:40;;;;;;;7.75;4.20;;;10.30;99.90;;;;;;5069890;28;20417;-71
2023/10/27 03:17:07;;;;;;;8.45;4.25;;;10.20;99.90;;;;;;5068406;28;20885;-72
2023/10/27 03:19:34;;;;;;;6.70;4.07;;;10.20;99.90;;;;;;5073997;28;20438;-71
2023/10/27 03:22:02;;;;;;;6.80;4.30;;;10.30;99.90;;;;;;5068830;28;20446;-71
2023/10/27 03:24:30;;;;;;;7.60;4.50;;;10.30;99.90;;;;;;5068137;28;20853;-70
2023/10/27 03:26:56;;;;;;;7.38;4.45;;;10.30;99.90;;;;;;5077266;28;20515;-70
2023/10/27 03:29:23;;;;;;;7.93;4.60;;;10.30;99.90;;;;;;5067228;28;20431;-73
2023/10/27 03:31:50;;;;;;;7.90;4.70;;;10.30;99.90;;;;;;5065698;28;20596;-71
2023/10/27 03:34:17;;;;;;;8.55;4.47;;;10.20;99.90;;;;;;5075754;28;20569;-71
2023/10/27 03:36:44;;;;;;;8.23;4.53;;;10.20;99.90;;;;;;5069797;28;20676;-71
2023/10/27 03:39:11;;;;;;;8.30;4.43;;;10.20;99.90;;;;;;5076230;28;20476;-70
2023/10/27 03:41:39;;;;;;;9.10;4.63;;;10.20;99.90;;;;;;5069566;28;20499;-71
2023/10/27 03:44:07;;;;;;;10.75;4.90;;;10.10;99.90;;;;;;5068130;28;20472;-71
2023/10/27 03:46:34;;;;;;;7.97;5.10;;;10.10;99.90;;;;;;5069808;28;20418;-70
2023/10/27 03:49:01;;;;;;;9.40;4.70;;;10.10;99.90;;;;;;5067497;28;20435;-72
2023/10/27 03:51:28;;;;;;;7.28;4.80;;;10.10;99.90;;;;;;5071393;28;20551;-71
2023/10/27 03:53:55;;;;;;;6.27;4.43;;;10.00;99.90;;;;;;5070016;28;20830;-70
2023/10/27 03:56:21;;;;;;;6.75;5.00;;;10.00;99.90;;;;;;5068148;28;20812;-71
2023/10/27 03:58:50;;;;;;;5.97;4.78;;;10.00;99.90;;;;;;5066425;28;20423;-70
2023/10/27 04:01:17;;;;;;;8.25;5.00;;;10.00;99.90;;;;;;5067503;28;20459;-71
2023/10/27 04:03:44;;;;;;;8.65;4.40;;;10.00;99.90;;;;;;5066242;28;20431;-71
2023/10/27 04:06:11;;;;;;;9.13;5.10;;;10.00;99.90;;;;;;5066077;28;20423;-71
2023/10/27 04:08:38;;;;;;;8.35;5.05;;;10.00;99.90;;;;;;5072263;28;20743;-71
2023/10/27 04:11:05;;;;;;;8.90;5.18;;;10.00;99.90;;;;;;5070936;28;20405;-70
2023/10/27 04:13:31;;;;;;;10.52;5.85;;;10.00;99.90;;;;;;5075107;28;20517;-71
2023/10/27 04:16:00;;;;;;;12.90;5.50;;;10.00;99.90;;;;;;5072066;28;20433;-71
2023/10/27 04:18:27;;;;;;;9.50;6.22;;;10.00;99.90;;;;;;5060925;28;20885;-70
2023/10/27 04:20:53;;;;;;;9.77;5.20;;;10.00;99.90;;;;;;5066488;28;20412;-70
2023/10/27 04:23:20;;;;;;;9.48;5.32;;;9.90;99.90;;;;;;5066433;28;20407;-72
2023/10/27 04:25:47;;;;;;;8.95;4.88;;;9.90;99.90;;;;;;5065295;28;20434;-70
2023/10/27 04:28:14;;;;;;;10.70;5.60;;;9.90;99.90;;;;;;5069282;28;20552;-71
2023/10/27 04:30:40;;;;;;;10.47;5.03;;;9.90;99.90;;;;;;5067664;28;20432;-71
2023/10/27 04:33:09;;;;;;;10.02;5.45;;;9.90;99.90;;;;;;5066310;28;20427;-70
2023/10/27 04:35:36;;;;;;;8.02;5.60;;;9.90;99.90;;;;;;5058664;28;20415;-70
2023/10/27 04:38:03;;;;;;;8.75;5.28;;;9.90;99.90;;;;;;5068361;28;20427;-71
2023/10/27 04:40:31;;;;;;;8.98;5.00;;;9.90;99.90;;;;;;5063820;28;20435;-70
2023/10/27 04:42:59;;;;;;;8.13;4.90;;;10.00;99.90;;;;;;5065792;28;20830;-70
2023/10/27 04:45:27;;;;;;;10.90;5.60;;;10.00;99.90;;;;;;5064392;28;20513;-69
2023/10/27 04:47:54;;;;;;;9.02;5.53;;;10.00;99.90;;;;;;5070026;28;20909;-70
2023/10/27 04:50:23;;;;;;;10.98;5.30;;;10.00;99.90;;;;;;5067569;28;20534;-70
2023/10/27 04:52:50;;;;;;;9.63;5.80;;;10.00;99.90;;;;;;5066685;28;20423;-70
2023/10/27 04:55:18;;;;;;;10.57;5.47;;;10.00;99.90;;;;;;5067875;28;20426;-74
2023/10/27 04:57:45;;;;;;;8.30;5.20;;;10.00;99.90;;;;;;5058602;28;20517;-71
2023/10/27 05:00:13;;;;;;;12.07;6.25;;;10.00;99.90;;;;;;5057831;28;20424;-72
2023/10/27 05:02:40;;;;;;;9.07;5.93;;;10.00;99.90;;;;;;5068328;28;20594;-71
2023/10/27 05:05:08;;;;;;;10.25;6.25;;;10.00;99.90;;;;;;5066450;28;20507;-71
2023/10/27 05:07:36;;;;;;;11.43;6.20;;;10.00;99.90;;;;;;5065971;28;20432;-72
2023/10/27 05:10:07;;;;;;;11.82;6.40;;;10.00;99.90;;;;;;5066579;28;20427;-72
2023/10/27 05:12:34;;;;;;;10.60;6.53;;;10.00;99.90;;;;;;5063032;28;20446;-72
2023/10/27 05:15:01;;;;;;;10.23;6.30;;;10.10;99.90;;;;;;5063431;28;20834;-71
2023/10/27 05:17:27;;;;;;;10.40;6.43;;;10.10;99.90;;;;;;5067229;28;20427;-72
2023/10/27 05:19:54;;;;;;;10.95;7.30;;;10.10;99.90;;;;;;5063933;28;20979;-72
2023/10/27 05:22:23;;;;;;;10.30;7.00;;;10.10;99.90;;;;;;5065489;28;20441;-72
2023/10/27 05:24:51;;;;;;;13.23;7.70;;;10.00;99.90;;;;;;5062229;28;20442;-72
2023/10/27 05:27:18;;;;;;;11.15;7.60;;;10.00;99.90;;;;;;5069322;28;20425;-72
2023/10/27 05:29:45;;;;;;;12.07;7.65;;;10.00;99.90;;;;;;5061473;28;20428;-73
2023/10/27 05:32:13;;;;;;;14.93;7.90;;;10.00;99.90;;;;;;5061356;28;20450;-71
2023/10/27 05:34:40;;;;;;;12.63;7.30;;;10.00;99.90;;;;;;5067956;28;20433;-71
2023/10/27 05:37:06;;;;;;;12.93;7.90;;;10.00;99.90;;;;;;5067615;28;20443;-71
2023/10/27 05:39:33;;;;;;;14.90;8.50;;;10.00;99.90;;;;;;5067522;28;20515;-71
2023/10/27 05:42:01;;;;;;;13.88;8.38;;;10.00;99.90;;;;;;5070475;28;20417;-71
2023/10/27 05:44:28;;;;;;;11.55;7.80;;;10.00;99.90;;;;;;5058267;28;20411;-71
2023/10/27 05:46:55;;;;;;;13.82;8.07;;;10.00;99.90;;;;;;5069245;28;20503;-71
2023/10/27 05:49:21;;;;;;;15.10;8.02;;;10.00;99.90;;;;;;5065218;28;20433;-72
2023/10/27 05:51:48;;;;;;;14.00;7.95;;;10.00;99.90;;;;;;5074995;28;20409;-71
2023/10/27 05:54:15;;;;;;;15.70;8.15;;;10.00;99.90;;;;;;5065594;28;20749;-71
2023/10/27 05:56:41;;;;;;;12.88;8.20;;;10.00;99.90;;;;;;5065963;28;20408;-72
2023/10/27 05:59:10;;;;;;;15.57;9.07;;;10.00;99.90;;;;;;5065339;28;20441;-71
2023/10/27 06:01:36;;;;;;;13.30;8.75;;;10.00;99.90;;;;;;5063750;28;20428;-71
2023/10/27 06:04:03;;;;;;;12.07;8.52;;;10.00;99.90;;;;;;5069119;28;20407;-71
2023/10/27 06:06:30;;;;;;;16.67;8.98;;;10.00;99.90;;;;;;5064941;28;20408;-71
2023/10/27 06:08:57;;;;;;;12.48;9.00;;;10.00;99.90;;;;;;5065462;28;20412;-71
2023/10/27 06:11:24;;;;;;;16.73;9.05;;;10.00;99.90;;;;;;5068861;28;20896;-71
2023/10/27 06:13:51;;;;;;;16.02;8.90;;;10.00;99.90;;;;;;5068884;28;20411;-71
2023/10/27 06:16:19;;;;;;;16.08;9.93;;;10.00;99.90;;;;;;5067651;28;20427;-72
2023/10/27 06:18:46;;;;;;;17.67;9.07;;;10.00;99.90;;;;;;5070276;28;20727;-72
2023/10/27 06:21:12;;;;;;;16.80;9.80;;;10.00;99.90;;;;;;5068345;28;20457;-71
2023/10/27 06:23:39;;;;;;;19.90;10.40;;;10.00;99.90;;;;;;5070840;28;20939;-71
2023/10/27 06:26:06;;;;;;;16.40;9.20;;;10.00;99.90;;;;;;5074539;28;20425;-71
2023/10/27 06:28:34;;;;;;;17.02;9.23;;;10.00;99.90;;;;;;5068082;28;20529;-71
2023/10/27 06:31:02;;;;;;;16.35;9.50;;;10.00;99.90;;;;;;5067162;28;20423;-71
2023/10/27 06:33:32;;;;;;;16.83;9.65;;;10.00;99.90;;;;;;5066877;28;20439;-71
2023/10/27 06:36:00;;;;;;;14.05;9.40;;;10.00;99.90;;;;;;5071512;28;20489;-71
2023/10/27 06:38:27;;;;;;;13.15;10.27;;;10.00;99.90;;;;;;5068899;28;20408;-71
2023/10/27 06:40:53;;;;;;;14.05;9.15;;;10.00;99.90;;;;;;5072510;28;20874;-71
2023/10/27 06:43:20;;;;;;;15.18;9.02;;;10.00;99.90;;;;;;5067869;28;20915;-71
2023/10/27 06:45:47;;;;;;;14.88;9.18;;;10.00;99.90;;;;;;5067555;28;20411;-71
2023/10/27 06:48:13;;;;;;;12.53;8.20;;;10.00;99.90;;;;;;5076524;28;20802;-71
2023/10/27 06:50:41;;;;;;;13.23;8.70;;;10.00;99.90;;;;;;5072376;28;20439;-71
2023/10/27 06:53:08;;;;;;;14.98;8.60;;;10.00;99.90;;;;;;5068993;28;20505;-72
2023/10/27 06:55:35;;;;;;;14.77;8.70;;;10.10;99.90;;;;;;5068028;28;20419;-71
2023/10/27 06:58:03;;;;;;;14.63;8.52;;;10.10;99.90;;;;;;5075531;28;20411;-70
2023/10/27 07:00:30;;;;;;;15.10;8.57;;;10.10;99.90;;;;;;5059973;28;20909;-71
2023/10/27 07:02:59;;;;;;;13.45;8.85;;;10.10;99.90;;;;;;5065599;28;21292;-71
2023/10/27 07:05:26;;;;;;;12.48;8.60;;;10.10;99.90;;;;;;5069095;28;20427;-71
2023/10/27 07:07:54;;;;;;;15.27;8.60;;;10.10;99.90;;;;;;5067773;28;20828;-71
2023/10/27 07:10:21;;;;;;;12.98;8.43;;;10.10;99.90;;;;;;5067112;28;20442;-71
2023/10/27 07:12:48;;;;;;;12.65;7.80;;;10.10;99.90;;;;;;5067327;28;20412;-71
2023/10/27 07:15:15;;;;;;;13.07;8.38;;;10.20;99.90;;;;;;5069191;28;20506;-71
2023/10/27 07:17:42;;;;;;;13.18;8.13;;;10.10;99.90;;;;;;5067840;28;20435;-71
2023/10/27 07:20:09;;;;;;;16.13;8.90;;;10.20;99.90;;;;;;5070835;28;20428;-71
2023/10/27 07:22:36;;;;;;;13.40;8.15;;;10.20;99.90;;;;;;5067236;28;20410;-70
2023/10/27 07:25:05;;;;;;;14.15;8.68;;;10.20;99.90;;;;;;5068940;28;20443;-72
2023/10/27 07:27:32;;;;;;;16.25;8.52;;;10.20;99.90;;;;;;5077038;28;20458;-70
2023/10/27 07:29:59;;;;;;;12.43;8.27;;;10.20;99.90;;;;;;5065594;28;20913;-71
2023/10/27 07:32:25;;;;;;;11.50;7.53;;;10.30;99.90;;;;;;5071858;28;20476;-70
2023/10/27 07:34:52;;;;;;;12.43;7.45;;;10.20;99.90;;;;;;5067943;28;20448;-69
2023/10/27 07:37:20;;;;;;;11.60;6.75;;;10.30;99.90;;;;;;5062431;28;20443;-69
2023/10/27 07:39:47;;;;;;;9.32;6.80;;;10.30;99.90;;;;;;5064212;28;20505;-69
2023/10/27 07:42:15;;;;;;;11.87;7.00;;;10.30;99.90;;;;;;5059143;28;20467;-71
2023/10/27 07:44:42;;;;;;;12.05;8.40;;;10.40;99.90;;;;;;5058720;28;20431;-71
2023/10/27 07:47:09;;;;;;;10.20;7.03;;;10.40;99.90;;;;;;5058926;28;20442;-71
2023/10/27 07:49:35;;;;;;;12.40;7.00;;;10.40;99.90;;;;;;5064424;28;20542;-72
2023/10/27 07:52:03;;;;;;;9.50;6.45;;;10.40;99.90;;;;;;5064722;28;20487;-71
2023/10/27 07:54:30;;;;;;;9.75;6.50;;;10.40;99.90;;;;;;5065828;28;20838;-70
2023/10/27 07:56:59;;;;;;;10.20;7.00;;;10.40;99.90;;;;;;5069760;28;20456;-70
2023/10/27 07:59:27;;;;;;;10.27;6.95;;;10.40;99.90;;;;;;5068581;28;20435;-71
2023/10/27 08:01:54;;;;;;;7.77;5.27;;;10.40;99.90;;;;;;5069900;28;20512;-70
2023/10/27 08:04:23;;;;;;;6.53;5.40;;;10.40;99.90;;;;;;5066081;28;20809;-70
2023/10/27 08:06:50;;;;;;;9.20;5.40;;;10.40;99.90;;;;;;5068061;28;20526;-71
2023/10/27 08:09:16;;;;;;;8.05;4.85;;;10.50;99.90;;;;;;5062630;28;20430;-71
2023/10/27 08:11:43;;;;;;;7.45;4.78;;;10.50;99.90;;;;;;5070960;28;20571;-70
2023/10/27 08:14:10;;;;;;;6.00;4.10;;;10.50;99.90;;;;;;5065369;28;20426;-71
2023/10/27 08:16:38;;;;;;;5.18;4.10;;;10.50;99.90;;;;;;5062896;28;20453;-71
2023/10/27 08:19:05;;;;;;;5.28;4.00;;;10.50;99.90;;;;;;5064151;28;20697;-71
2023/10/27 08:21:32;;;;;;;5.85;4.00;;;10.50;99.90;;;;;;5059242;28;20804;-71
2023/10/27 08:23:59;;;;;;;5.53;4.10;;;10.50;99.90;;;;;;5061618;28;20438;-71
2023/10/27 08:26:26;;;;;;;5.38;4.60;;;10.60;99.90;;;;;;5065188;28;20427;-70
2023/10/27 08:28:52;;;;;;;5.40;4.10;;;10.60;99.90;;;;;;5064513;28;20451;-71
2023/10/27 08:31:19;;;;;;;6.22;4.30;;;10.60;99.90;;;;;;5061737;28;20454;-71
2023/10/27 08:33:47;;;;;;;7.55;4.70;;;10.60;99.90;;;;;;5062297;28;20774;-72
2023/10/27 08:36:15;;;;;;;4.80;4.30;;;10.60;99.90;;;;;;5063134;28;22126;-71
2023/10/27 08:38:42;;;;;;;4.75;3.92;;;10.70;99.90;;;;;;5064914;28;20479;-71
2023/10/27 08:41:09;;;;;;;5.38;4.10;;;10.60;99.90;;;;;;5064196;28;20992;-70
2023/10/27 08:43:38;;;;;;;7.10;4.40;;;10.70;99.90;;;;;;5055787;28;20459;-71
2023/10/27 08:46:05;;;;;;;5.90;4.68;;;10.70;99.90;;;;;;5062980;28;20439;-71
2023/10/27 08:48:33;;;;;;;5.53;4.03;;;10.60;99.90;;;;;;5067064;28;20431;-71
2023/10/27 08:51:07;;;;;;;6.53;3.80;;;10.60;99.90;;;;;;5069923;28;20924;-71
2023/10/27 08:53:38;;;;;;;7.20;4.13;;;10.60;99.90;;;;;;5056693;28;20423;-71
2023/10/27 08:56:07;;;;;;;6.03;4.40;;;10.60;99.90;;;;;;5065977;28;20503;-71
2023/10/27 08:58:33;;;;;;;5.38;4.35;;;10.60;99.90;;;;;;5057196;28;20399;-71
2023/10/27 09:01:00;;;;;;;4.97;3.78;;;10.70;99.90;;;;;;5062901;28;20448;-71
2023/10/27 09:03:28;;;;;;;4.65;4.18;;;10.70;99.90;;;;;;5070008;28;20458;-71
2023/10/27 09:05:55;;;;;;;7.22;4.00;;;10.80;99.90;;;;;;5065682;28;20531;-71
2023/10/27 09:08:24;;;;;;;5.70;4.35;;;10.80;99.90;;;;;;5063536;28;20428;-72
2023/10/27 09:10:51;;;;;;;5.43;4.20;;;10.80;99.90;;;;;;5066174;28;20434;-71
2023/10/27 09:13:21;;;;;;;5.75;3.80;;;10.80;99.90;;;;;;5063513;28;20427;-71
2023/10/27 09:15:49;;;;;;;8.97;5.47;;;10.80;99.90;;;;;;5070593;28;20434;-71
2023/10/27 09:18:16;;;;;;;6.15;4.68;;;10.90;99.90;;;;;;5064873;28;20914;-71
2023/10/27 09:20:48;;;;;;;6.20;4.18;;;10.90;99.90;;;;;;5063555;28;20434;-71
2023/10/27 09:23:15;;;;;;;6.33;4.30;;;10.90;99.90;;;;;;5064096;28;20445;-71
2023/10/27 09:25:43;;;;;;;4.57;4.18;;;10.80;99.90;;;;;;5063464;28;20879;-71
2023/10/27 09:28:11;;;;;;;9.55;4.50;;;10.80;99.90;;;;;;5065102;28;20500;-70
2023/10/27 09:30:39;;;;;;;4.50;4.10;;;10.80;99.90;;;;;;5062926;28;20439;-71
2023/10/27 09:33:13;;;;;;;5.72;4.55;;;10.90;99.90;;;;;;5067540;28;20455;-71
2023/10/27 09:35:40;;;;;;;5.70;3.80;;;10.90;99.90;;;;;;5056761;28;20866;-70
2023/10/27 09:38:08;;;;;;;4.88;3.70;;;10.90;99.90;;;;;;5063902;28;20439;-70
2023/10/27 09:40:37;;;;;;;4.80;3.60;;;11.00;99.90;;;;;;5057848;28;20447;-71
2023/10/27 09:43:08;;;;;;;4.45;3.40;;;11.00;99.90;;;;;;5062231;28;20485;-71
2023/10/27 09:45:37;;;;;;;3.73;3.20;;;11.10;99.90;;;;;;5056129;28;20503;-71
2023/10/27 09:48:07;;;;;;;5.70;3.78;;;11.00;99.90;;;;;;5062821;28;20443;-71
2023/10/27 09:50:33;;;;;;;3.50;2.97;;;11.00;99.90;;;;;;5060660;28;20428;-71
2023/10/27 09:53:02;;;;;;;5.25;3.60;;;11.10;99.90;;;;;;5064367;28;20424;-70
2023/10/27 09:55:30;;;;;;;4.30;3.17;;;11.10;99.90;;;;;;5067122;28;20715;-70
2023/10/27 09:57:57;;;;;;;3.60;3.15;;;11.10;99.90;;;;;;5062763;28;20930;-71
2023/10/27 10:00:28;;;;;;;3.83;3.40;;;11.20;99.90;;;;;;5072347;28;20597;-71
2023/10/27 10:02:56;;;;;;;3.65;3.15;;;11.20;99.90;;;;;;5059743;28;20524;-71
2023/10/27 10:05:23;;;;;;;5.53;3.33;;;11.20;99.90;;;;;;5064252;28;20893;-71
2023/10/27 10:07:54;;;;;;;5.10;3.63;;;11.20;99.90;;;;;;5062882;28;20930;-71
2023/10/27 10:10:22;;;;;;;4.03;3.33;;;11.30;99.90;;;;;;5060937;28;20881;-71
2023/10/27 10:13:00;;;;;;;4.47;3.38;;;11.40;99.90;;;;;;5061810;28;20771;-71
2023/10/27 10:15:28;;;;;;;4.53;3.50;;;11.40;99.90;;;;;;5065739;28;20477;-71
2023/10/27 10:17:55;;;;;;;3.43;3.13;;;11.50;99.90;;;;;;5064034;28;20606;-71
2023/10/27 10:20:59;;;;;;;3.92;2.80;;;11.50;99.90;;;;;;5063776;28;20440;-71
2023/10/27 10:24:17;;;;;;;3.33;2.90;;;11.60;99.90;;;;;;5059909;28;20498;-72
2023/10/27 10:27:12;;;;;;;4.35;2.72;;;11.60;99.90;;;;;;5060321;28;20486;-72
2023/10/27 10:29:39;;;;;;;4.30;3.05;;;11.70;99.90;;;;;;5069107;28;20420;-70
2023/10/27 10:32:36;;;;;;;3.88;3.03;;;11.80;99.90;;;;;;5066466;28;20428;-70
2023/10/27 10:35:21;;;;;;;3.30;2.97;;;11.90;99.90;;;;;;5067071;28;20443;-73
2023/10/27 10:37:49;;;;;;;4.40;2.75;;;12.10;99.90;;;;;;5056998;28;20427;-71
2023/10/27 10:40:24;;;;;;;4.50;3.00;;;12.20;99.90;;;;;;5061359;28;20544;-72
2023/10/27 10:43:23;;;;;;;4.63;3.10;;;12.20;99.90;;;;;;5062023;28;20512;-71
2023/10/27 10:45:51;;;;;;;5.40;3.63;;;12.30;99.90;;;;;;5049189;28;20872;-71
2023/10/27 10:48:20;;;;;;;4.47;3.70;;;12.30;99.90;;;;;;5061956;28;20431;-71
2023/10/27 10:50:48;;;;;;;5.47;3.75;;;12.30;99.90;;;;;;5066892;28;20729;-71
2023/10/27 10:53:16;;;;;;;6.65;3.95;;;12.30;99.90;;;;;;5064493;28;20536;-71
2023/10/27 10:55:45;;;;;;;6.18;4.00;;;12.20;99.90;;;;;;5061178;28;20935;-71
2023/10/27 10:58:12;;;;;;;6.38;4.28;;;12.20;99.90;;;;;;5064687;28;20435;-71
2023/10/27 11:00:38;;;;;;;7.97;3.95;;;12.20;99.90;;;;;;5062943;28;20442;-71
2023/10/27 11:03:09;;;;;;;5.72;3.95;;;12.30;99.90;;;;;;5068526;28;20442;-71
2023/10/27 11:05:37;;;;;;;4.87;3.83;;;12.40;99.90;;;;;;5060256;28;20467;-71
2023/10/27 11:08:05;;;;;;;5.78;3.47;;;12.50;99.90;;;;;;5067160;28;20446;-71
2023/10/27 11:10:33;;;;;;;3.85;3.45;;;12.60;99.90;;;;;;5065231;28;20438;-70
2023/10/27 11:13:04;;;;;;;6.22;3.70;;;12.60;99.90;;;;;;5064785;28;20435;-71
2023/10/27 11:15:44;;;;;;;3.50;3.00;;;12.60;99.90;;;;;;5065480;28;20593;-71
2023/10/27 11:18:13;;;;;;;3.10;2.80;;;12.70;99.90;;;;;;5061701;28;20487;-69
2023/10/27 11:20:43;;;;;;;4.40;3.20;;;12.70;99.90;;;;;;5067062;28;20543;-71
2023/10/27 11:23:11;;;;;;;4.65;3.20;;;12.80;99.90;;;;;;5067670;28;20520;-70
2023/10/27 11:25:39;;;;;;;5.18;3.30;;;12.80;99.90;;;;;;5067304;28;20431;-69
2023/10/27 11:28:20;;;;;;;5.78;3.30;;;12.80;99.90;;;;;;5066750;28;20423;-70
2023/10/27 11:31:01;;;;;;;5.93;3.88;;;12.90;99.90;;;;;;5065783;28;20419;-70
2023/10/27 11:33:28;;;;;;;4.35;3.25;;;12.90;99.90;;;;;;5065943;28;20438;-69
2023/10/27 11:35:57;;;;;;;6.45;3.22;;;13.00;99.90;;;;;;5066941;28;20423;-71
2023/10/27 11:38:24;;;;;;;5.93;3.30;;;13.00;99.90;;;;;;5065558;28;20439;-70
2023/10/27 11:40:51;;;;;;;5.53;2.70;;;13.00;99.90;;;;;;5066185;28;20756;-70
2023/10/27 11:43:18;;;;;;;5.60;2.85;;;13.00;99.90;;;;;;5064524;28;20429;-70
2023/10/27 11:45:46;;;;;;;4.53;2.60;;;12.90;99.90;;;;;;5065677;28;20443;-70
2023/10/27 11:48:13;;;;;;;5.05;2.67;;;12.70;99.90;;;;;;5065559;28;20782;-71
2023/10/27 11:50:40;;;;;;;5.28;3.00;;;12.60;99.90;;;;;;5069746;28;20525;-70
2023/10/27 11:53:08;;;;;;;6.65;2.92;;;12.50;99.90;;;;;;5063845;28;20519;-70
2023/10/27 11:55:34;;;;;;;6.20;3.30;;;12.40;99.90;;;;;;5064943;28;20431;-70
2023/10/27 11:58:01;;;;;;;4.45;2.72;;;12.30;99.90;;;;;;5065663;28;20432;-70
2023/10/27 12:00:28;;;;;;;7.72;3.17;;;12.30;99.90;;;;;;5063882;28;20438;-69
2023/10/27 12:02:56;;;;;;;6.38;3.50;;;12.20;99.90;;;;;;5063601;28;20434;-70
2023/10/27 12:05:23;;;;;;;7.05;3.50;;;12.10;99.90;;;;;;5066621;28;20539;-70
2023/10/27 12:07:51;;;;;;;9.07;4.20;;;12.10;99.90;;;;;;5066201;28;20431;-70
2023/10/27 12:10:19;;;;;;;6.15;3.40;;;12.10;99.90;;;;;;5064722;28;20435;-70
2023/10/27 12:12:47;;;;;;;6.72;3.83;;;12.10;99.90;;;;;;5064122;28;20862;-70
2023/10/27 12:15:14;;;;;;;9.80;3.83;;;12.00;99.90;;;;;;5066222;28;20536;-70
2023/10/27 12:17:42;;;;;;;8.88;4.00;;;12.00;99.90;;;;;;5065700;28;21097;-70
2023/10/27 12:20:12;;;;;;;9.52;4.00;;;12.00;99.90;;;;;;5070850;28;20447;-69
2023/10/27 12:22:44;;;;;;;6.93;4.57;;;12.00;99.90;;;;;;5072271;28;20423;-70
2023/10/27 12:25:10;;;;;;;8.10;4.88;;;12.00;99.90;;;;;;5066068;28;20407;-70
2023/10/27 12:27:39;;;;;;;8.15;4.35;;;12.00;99.90;;;;;;5057334;28;20427;-70
2023/10/27 12:30:07;;;;;;;9.77;4.55;;;12.00;99.90;;;;;;5072344;28;20416;-71
2023/10/27 12:32:33;;;;;;;7.43;3.92;;;12.00;99.90;;;;;;5061873;28;20423;-71
2023/10/27 12:35:01;;;;;;;7.10;3.75;;;12.00;99.90;;;;;;5065105;28;20408;-70
2023/10/27 12:37:27;;;;;;;7.90;3.80;;;11.90;99.90;;;;;;5067617;28;20411;-70
2023/10/27 12:39:54;;;;;;;8.00;3.10;;;11.90;99.90;;;;;;5065266;28;20435;-71
2023/10/27 12:42:21;;;;;;;9.63;3.23;;;11.80;99.90;;;;;;5064829;28;20482;-70
2023/10/27 12:44:50;;;;;;;7.77;2.40;;;11.80;99.90;;;;;;5064294;28;20755;-70
2023/10/27 12:47:17;;;;;;;5.32;2.88;;;11.80;99.90;;;;;;5061471;28;20427;-70